sensor_id;sensor_type;location;lat;lon;timestamp;P1;durP1;ratioP1;P2;durP2;ratioP2
62790;SDS011;48830;53.426;10.300;2023-05-29T00:01:12;8.85;;;2.95;;
62790;SDS011;48830;53.426;10.300;2023-05-29T00:03:37;5.60;;;2.33;;
62790;SDS011;48830;53.426;10.300;2023-05-29T00:06:03;8.88;;;2.50;;
62790;SDS011;48830;53.426;10.300;2023-05-29T00:08:29;8.95;;;2.65;;
62790;SDS011;48830;53.426;10.300;2023-05-29T00:10:54;6.18;;;2.88;;
62790;SDS011;48830;53.426;10.300;2023-05-29T00:13:20;9.15;;;2.60;;
62790;SDS011;48830;53.426;10.300;2023-05-29T00:15:45;10.02;;;2.90;;
62790;SDS011;48830;53.426;10.300;2023-05-29T00:18:11;6.10;;;2.13;;
62790;SDS011;48830;53.426;10.300;2023-05-29T00:20:37;8.52;;;2.60;;
62790;SDS011;48830;53.426;10.300;2023-05-29T00:23:03;6.65;;;2.70;;
62790;SDS011;48830;53.426;10.300;2023-05-29T00:25:31;9.38;;;2.58;;
62790;SDS011;48830;53.426;10.300;2023-05-29T00:27:56;8.95;;;2.40;;
62790;SDS011;48830;53.426;10.300;2023-05-29T00:30:22;6.85;;;2.63;;
62790;SDS011;48830;53.426;10.300;2023-05-29T00:32:48;7.43;;;2.72;;
62790;SDS011;48830;53.426;10.300;2023-05-29T00:35:14;7.85;;;2.78;;
62790;SDS011;48830;53.426;10.300;2023-05-29T00:37:39;6.05;;;2.50;;
62790;SDS011;48830;53.426;10.300;2023-05-29T00:40:05;7.65;;;2.30;;
62790;SDS011;48830;53.426;10.300;2023-05-29T00:42:31;7.45;;;2.55;;
62790;SDS011;48830;53.426;10.300;2023-05-29T00:44:57;8.57;;;2.97;;
62790;SDS011;48830;53.426;10.300;2023-05-29T00:47:23;9.38;;;2.90;;
62790;SDS011;48830;53.426;10.300;2023-05-29T00:49:49;7.63;;;2.40;;
62790;SDS011;48830;53.426;10.300;2023-05-29T00:52:16;7.60;;;2.40;;
62790;SDS011;48830;53.426;10.300;2023-05-29T00:54:43;9.10;;;2.42;;
62790;SDS011;48830;53.426;10.300;2023-05-29T00:57:10;9.52;;;2.83;;
62790;SDS011;48830;53.426;10.300;2023-05-29T00:59:37;8.15;;;2.10;;
62790;SDS011;48830;53.426;10.300;2023-05-29T01:02:04;7.68;;;2.30;;
62790;SDS011;48830;53.426;10.300;2023-05-29T01:04:30;7.28;;;2.85;;
62790;SDS011;48830;53.426;10.300;2023-05-29T01:06:59;7.68;;;2.40;;
62790;SDS011;48830;53.426;10.300;2023-05-29T01:09:27;9.40;;;2.45;;
62790;SDS011;48830;53.426;10.300;2023-05-29T01:14:33;10.07;;;2.53;;
62790;SDS011;48830;53.426;10.300;2023-05-29T01:22:25;9.43;;;2.88;;
62790;SDS011;48830;53.426;10.300;2023-05-29T01:25:03;11.10;;;2.63;;
62790;SDS011;48830;53.426;10.300;2023-05-29T01:27:37;12.65;;;2.72;;
62790;SDS011;48830;53.426;10.300;2023-05-29T01:30:05;10.25;;;2.60;;
62790;SDS011;48830;53.426;10.300;2023-05-29T01:32:33;12.48;;;3.15;;
62790;SDS011;48830;53.426;10.300;2023-05-29T01:34:59;9.38;;;2.55;;
62790;SDS011;48830;53.426;10.300;2023-05-29T01:37:25;12.95;;;3.13;;
62790;SDS011;48830;53.426;10.300;2023-05-29T01:39:54;13.43;;;2.88;;
62790;SDS011;48830;53.426;10.300;2023-05-29T01:42:19;9.70;;;2.65;;
62790;SDS011;48830;53.426;10.300;2023-05-29T01:44:45;8.18;;;2.40;;
62790;SDS011;48830;53.426;10.300;2023-05-29T01:47:14;7.38;;;2.58;;
62790;SDS011;48830;53.426;10.300;2023-05-29T01:49:40;11.02;;;3.15;;
62790;SDS011;48830;53.426;10.300;2023-05-29T01:52:07;11.25;;;2.45;;
62790;SDS011;48830;53.426;10.300;2023-05-29T01:54:33;8.82;;;2.63;;
62790;SDS011;48830;53.426;10.300;2023-05-29T01:56:59;10.73;;;3.08;;
62790;SDS011;48830;53.426;10.300;2023-05-29T01:59:25;10.52;;;2.83;;
62790;SDS011;48830;53.426;10.300;2023-05-29T02:01:51;10.35;;;2.88;;
62790;SDS011;48830;53.426;10.300;2023-05-29T02:04:17;13.45;;;2.83;;
62790;SDS011;48830;53.426;10.300;2023-05-29T02:06:42;9.00;;;2.53;;
62790;SDS011;48830;53.426;10.300;2023-05-29T02:09:08;13.15;;;2.75;;
62790;SDS011;48830;53.426;10.300;2023-05-29T02:11:33;10.40;;;2.60;;
62790;SDS011;48830;53.426;10.300;2023-05-29T02:13:59;12.70;;;3.15;;
62790;SDS011;48830;53.426;10.300;2023-05-29T02:16:27;13.73;;;2.83;;
62790;SDS011;48830;53.426;10.300;2023-05-29T02:18:52;12.55;;;2.58;;
62790;SDS011;48830;53.426;10.300;2023-05-29T02:21:18;13.43;;;3.05;;
62790;SDS011;48830;53.426;10.300;2023-05-29T02:23:43;11.73;;;2.65;;
62790;SDS011;48830;53.426;10.300;2023-05-29T02:26:09;14.43;;;3.20;;
62790;SDS011;48830;53.426;10.300;2023-05-29T02:28:35;7.82;;;3.03;;
62790;SDS011;48830;53.426;10.300;2023-05-29T02:31:02;13.35;;;2.80;;
62790;SDS011;48830;53.426;10.300;2023-05-29T02:33:28;8.52;;;2.45;;
62790;SDS011;48830;53.426;10.300;2023-05-29T02:35:54;9.43;;;2.50;;
62790;SDS011;48830;53.426;10.300;2023-05-29T02:38:20;13.52;;;2.72;;
62790;SDS011;48830;53.426;10.300;2023-05-29T02:40:46;16.23;;;3.25;;
62790;SDS011;48830;53.426;10.300;2023-05-29T02:43:12;11.63;;;3.67;;
62790;SDS011;48830;53.426;10.300;2023-05-29T02:45:38;11.25;;;3.10;;
62790;SDS011;48830;53.426;10.300;2023-05-29T02:48:03;11.50;;;2.90;;
62790;SDS011;48830;53.426;10.300;2023-05-29T02:50:29;12.70;;;3.03;;
62790;SDS011;48830;53.426;10.300;2023-05-29T02:52:55;12.07;;;2.80;;
62790;SDS011;48830;53.426;10.300;2023-05-29T02:55:20;10.75;;;3.08;;
62790;SDS011;48830;53.426;10.300;2023-05-29T02:57:46;9.15;;;2.65;;
62790;SDS011;48830;53.426;10.300;2023-05-29T03:00:14;10.95;;;2.50;;
62790;SDS011;48830;53.426;10.300;2023-05-29T03:02:39;15.00;;;3.20;;
62790;SDS011;48830;53.426;10.300;2023-05-29T03:05:05;15.00;;;2.83;;
62790;SDS011;48830;53.426;10.300;2023-05-29T03:07:31;9.82;;;2.80;;
62790;SDS011;48830;53.426;10.300;2023-05-29T03:09:57;11.02;;;3.47;;
62790;SDS011;48830;53.426;10.300;2023-05-29T03:12:22;7.00;;;2.55;;
62790;SDS011;48830;53.426;10.300;2023-05-29T03:14:48;11.93;;;2.60;;
62790;SDS011;48830;53.426;10.300;2023-05-29T03:17:14;10.93;;;3.30;;
62790;SDS011;48830;53.426;10.300;2023-05-29T03:19:39;10.60;;;2.90;;
62790;SDS011;48830;53.426;10.300;2023-05-29T03:22:05;11.77;;;2.92;;
62790;SDS011;48830;53.426;10.300;2023-05-29T03:24:33;13.00;;;3.15;;
62790;SDS011;48830;53.426;10.300;2023-05-29T03:27:00;12.70;;;3.28;;
62790;SDS011;48830;53.426;10.300;2023-05-29T03:29:29;12.38;;;2.75;;
62790;SDS011;48830;53.426;10.300;2023-05-29T03:31:56;13.68;;;2.83;;
62790;SDS011;48830;53.426;10.300;2023-05-29T03:34:26;9.23;;;2.75;;
62790;SDS011;48830;53.426;10.300;2023-05-29T03:36:56;15.20;;;3.35;;
62790;SDS011;48830;53.426;10.300;2023-05-29T03:39:22;14.95;;;3.75;;
62790;SDS011;48830;53.426;10.300;2023-05-29T03:41:48;12.15;;;2.97;;
62790;SDS011;48830;53.426;10.300;2023-05-29T03:44:13;15.98;;;3.30;;
62790;SDS011;48830;53.426;10.300;2023-05-29T03:46:39;14.48;;;3.38;;
62790;SDS011;48830;53.426;10.300;2023-05-29T03:49:05;13.60;;;2.97;;
62790;SDS011;48830;53.426;10.300;2023-05-29T03:51:32;15.35;;;2.75;;
62790;SDS011;48830;53.426;10.300;2023-05-29T03:53:57;11.60;;;2.67;;
62790;SDS011;48830;53.426;10.300;2023-05-29T03:56:23;16.75;;;3.33;;
62790;SDS011;48830;53.426;10.300;2023-05-29T03:58:49;16.08;;;3.00;;
62790;SDS011;48830;53.426;10.300;2023-05-29T04:01:15;14.32;;;2.80;;
62790;SDS011;48830;53.426;10.300;2023-05-29T04:03:41;13.02;;;3.20;;
62790;SDS011;48830;53.426;10.300;2023-05-29T04:06:09;10.73;;;2.58;;
62790;SDS011;48830;53.426;10.300;2023-05-29T04:08:34;14.07;;;3.13;;
62790;SDS011;48830;53.426;10.300;2023-05-29T04:11:01;12.32;;;2.92;;
62790;SDS011;48830;53.426;10.300;2023-05-29T04:13:28;10.40;;;2.45;;
62790;SDS011;48830;53.426;10.300;2023-05-29T04:15:54;13.85;;;3.75;;
62790;SDS011;48830;53.426;10.300;2023-05-29T04:18:20;13.75;;;3.13;;
62790;SDS011;48830;53.426;10.300;2023-05-29T04:20:47;15.15;;;3.20;;
62790;SDS011;48830;53.426;10.300;2023-05-29T04:23:13;13.88;;;2.80;;
62790;SDS011;48830;53.426;10.300;2023-05-29T04:25:39;13.98;;;2.97;;
62790;SDS011;48830;53.426;10.300;2023-05-29T04:28:04;13.57;;;3.10;;
62790;SDS011;48830;53.426;10.300;2023-05-29T04:30:30;10.30;;;2.95;;
62790;SDS011;48830;53.426;10.300;2023-05-29T04:32:57;10.70;;;3.33;;
62790;SDS011;48830;53.426;10.300;2023-05-29T04:35:24;12.70;;;3.10;;
62790;SDS011;48830;53.426;10.300;2023-05-29T04:37:56;12.18;;;3.58;;
62790;SDS011;48830;53.426;10.300;2023-05-29T04:40:25;11.27;;;3.45;;
62790;SDS011;48830;53.426;10.300;2023-05-29T04:42:51;13.82;;;2.85;;
62790;SDS011;48830;53.426;10.300;2023-05-29T04:45:19;13.00;;;3.15;;
62790;SDS011;48830;53.426;10.300;2023-05-29T04:47:46;8.55;;;2.40;;
62790;SDS011;48830;53.426;10.300;2023-05-29T04:50:12;11.18;;;3.03;;
62790;SDS011;48830;53.426;10.300;2023-05-29T04:52:39;15.18;;;3.45;;
62790;SDS011;48830;53.426;10.300;2023-05-29T04:55:07;10.68;;;2.83;;
62790;SDS011;48830;53.426;10.300;2023-05-29T04:57:33;14.07;;;3.20;;
62790;SDS011;48830;53.426;10.300;2023-05-29T04:59:59;13.65;;;2.88;;
62790;SDS011;48830;53.426;10.300;2023-05-29T05:02:25;10.20;;;2.60;;
62790;SDS011;48830;53.426;10.300;2023-05-29T05:04:51;10.85;;;3.17;;
62790;SDS011;48830;53.426;10.300;2023-05-29T05:07:16;14.73;;;3.10;;
62790;SDS011;48830;53.426;10.300;2023-05-29T05:09:42;11.40;;;3.10;;
62790;SDS011;48830;53.426;10.300;2023-05-29T05:12:13;15.65;;;3.38;;
62790;SDS011;48830;53.426;10.300;2023-05-29T05:14:39;12.40;;;3.00;;
62790;SDS011;48830;53.426;10.300;2023-05-29T05:17:04;13.48;;;3.03;;
62790;SDS011;48830;53.426;10.300;2023-05-29T05:19:30;13.63;;;3.67;;
62790;SDS011;48830;53.426;10.300;2023-05-29T05:21:56;15.77;;;3.13;;
62790;SDS011;48830;53.426;10.300;2023-05-29T05:24:22;17.00;;;3.58;;
62790;SDS011;48830;53.426;10.300;2023-05-29T05:26:48;13.98;;;3.10;;
62790;SDS011;48830;53.426;10.300;2023-05-29T05:29:13;19.63;;;4.18;;
62790;SDS011;48830;53.426;10.300;2023-05-29T05:31:39;16.05;;;3.17;;
62790;SDS011;48830;53.426;10.300;2023-05-29T05:34:04;16.80;;;3.72;;
62790;SDS011;48830;53.426;10.300;2023-05-29T05:36:30;14.93;;;3.20;;
62790;SDS011;48830;53.426;10.300;2023-05-29T05:39:02;14.95;;;3.58;;
62790;SDS011;48830;53.426;10.300;2023-05-29T05:41:28;11.95;;;3.25;;
62790;SDS011;48830;53.426;10.300;2023-05-29T05:43:53;14.02;;;3.25;;
62790;SDS011;48830;53.426;10.300;2023-05-29T05:46:48;10.68;;;3.08;;
62790;SDS011;48830;53.426;10.300;2023-05-29T05:49:14;12.48;;;2.85;;
62790;SDS011;48830;53.426;10.300;2023-05-29T05:51:40;16.92;;;4.15;;
62790;SDS011;48830;53.426;10.300;2023-05-29T05:54:06;13.07;;;3.33;;
62790;SDS011;48830;53.426;10.300;2023-05-29T05:56:31;13.07;;;3.75;;
62790;SDS011;48830;53.426;10.300;2023-05-29T05:58:57;12.50;;;3.10;;
62790;SDS011;48830;53.426;10.300;2023-05-29T06:01:22;13.15;;;3.10;;
62790;SDS011;48830;53.426;10.300;2023-05-29T06:03:48;14.63;;;3.70;;
62790;SDS011;48830;53.426;10.300;2023-05-29T06:06:14;15.63;;;3.70;;
62790;SDS011;48830;53.426;10.300;2023-05-29T06:08:41;15.13;;;3.35;;
62790;SDS011;48830;53.426;10.300;2023-05-29T06:11:08;14.63;;;3.40;;
62790;SDS011;48830;53.426;10.300;2023-05-29T06:13:36;14.52;;;3.03;;
62790;SDS011;48830;53.426;10.300;2023-05-29T06:16:06;15.88;;;3.85;;
62790;SDS011;48830;53.426;10.300;2023-05-29T06:18:32;14.95;;;3.17;;
62790;SDS011;48830;53.426;10.300;2023-05-29T06:20:58;11.35;;;3.25;;
62790;SDS011;48830;53.426;10.300;2023-05-29T06:23:24;12.68;;;2.78;;
62790;SDS011;48830;53.426;10.300;2023-05-29T06:25:50;13.40;;;3.40;;
62790;SDS011;48830;53.426;10.300;2023-05-29T06:28:16;12.60;;;2.63;;
62790;SDS011;48830;53.426;10.300;2023-05-29T06:30:41;15.25;;;3.85;;
62790;SDS011;48830;53.426;10.300;2023-05-29T06:33:07;10.98;;;3.10;;
62790;SDS011;48830;53.426;10.300;2023-05-29T06:35:35;13.95;;;3.65;;
62790;SDS011;48830;53.426;10.300;2023-05-29T06:38:00;17.20;;;3.60;;
62790;SDS011;48830;53.426;10.300;2023-05-29T06:40:26;16.98;;;3.33;;
62790;SDS011;48830;53.426;10.300;2023-05-29T06:42:51;12.13;;;3.38;;
62790;SDS011;48830;53.426;10.300;2023-05-29T06:45:20;14.90;;;3.45;;
62790;SDS011;48830;53.426;10.300;2023-05-29T06:47:45;11.65;;;3.47;;
62790;SDS011;48830;53.426;10.300;2023-05-29T06:50:11;10.25;;;3.00;;
62790;SDS011;48830;53.426;10.300;2023-05-29T06:52:37;11.32;;;3.10;;
62790;SDS011;48830;53.426;10.300;2023-05-29T06:55:26;13.80;;;3.00;;
62790;SDS011;48830;53.426;10.300;2023-05-29T06:57:54;14.55;;;3.17;;
62790;SDS011;48830;53.426;10.300;2023-05-29T07:00:20;12.45;;;3.10;;
62790;SDS011;48830;53.426;10.300;2023-05-29T07:02:56;13.02;;;3.13;;
62790;SDS011;48830;53.426;10.300;2023-05-29T07:05:21;15.75;;;3.53;;
62790;SDS011;48830;53.426;10.300;2023-05-29T07:07:47;16.05;;;3.00;;
62790;SDS011;48830;53.426;10.300;2023-05-29T07:10:13;15.40;;;3.78;;
62790;SDS011;48830;53.426;10.300;2023-05-29T07:12:38;15.20;;;3.25;;
62790;SDS011;48830;53.426;10.300;2023-05-29T07:15:04;11.07;;;3.15;;
62790;SDS011;48830;53.426;10.300;2023-05-29T07:17:31;12.35;;;3.40;;
62790;SDS011;48830;53.426;10.300;2023-05-29T07:20:12;10.40;;;3.40;;
62790;SDS011;48830;53.426;10.300;2023-05-29T07:22:40;11.13;;;3.00;;
62790;SDS011;48830;53.426;10.300;2023-05-29T07:25:06;12.77;;;2.95;;
62790;SDS011;48830;53.426;10.300;2023-05-29T07:27:32;9.98;;;3.22;;
62790;SDS011;48830;53.426;10.300;2023-05-29T07:29:58;12.43;;;3.50;;
62790;SDS011;48830;53.426;10.300;2023-05-29T07:32:23;15.02;;;3.05;;
62790;SDS011;48830;53.426;10.300;2023-05-29T07:34:49;11.30;;;3.05;;
62790;SDS011;48830;53.426;10.300;2023-05-29T07:37:15;12.57;;;3.20;;
62790;SDS011;48830;53.426;10.300;2023-05-29T07:39:42;9.80;;;3.08;;
62790;SDS011;48830;53.426;10.300;2023-05-29T07:42:34;14.73;;;3.53;;
62790;SDS011;48830;53.426;10.300;2023-05-29T07:45:01;16.63;;;3.78;;
62790;SDS011;48830;53.426;10.300;2023-05-29T07:47:26;11.68;;;3.25;;
62790;SDS011;48830;53.426;10.300;2023-05-29T07:49:52;11.60;;;3.22;;
62790;SDS011;48830;53.426;10.300;2023-05-29T07:52:22;14.40;;;2.90;;
62790;SDS011;48830;53.426;10.300;2023-05-29T07:54:47;13.05;;;3.08;;
62790;SDS011;48830;53.426;10.300;2023-05-29T07:57:13;10.90;;;3.13;;
62790;SDS011;48830;53.426;10.300;2023-05-29T07:59:41;14.20;;;3.28;;
62790;SDS011;48830;53.426;10.300;2023-05-29T08:02:08;10.48;;;2.78;;
62790;SDS011;48830;53.426;10.300;2023-05-29T08:05:01;12.98;;;3.50;;
62790;SDS011;48830;53.426;10.300;2023-05-29T08:07:28;11.70;;;2.78;;
62790;SDS011;48830;53.426;10.300;2023-05-29T08:09:53;10.50;;;2.85;;
62790;SDS011;48830;53.426;10.300;2023-05-29T08:12:19;12.40;;;3.30;;
62790;SDS011;48830;53.426;10.300;2023-05-29T08:14:47;16.38;;;3.70;;
62790;SDS011;48830;53.426;10.300;2023-05-29T08:17:13;12.73;;;3.03;;
62790;SDS011;48830;53.426;10.300;2023-05-29T08:19:38;11.32;;;3.08;;
62790;SDS011;48830;53.426;10.300;2023-05-29T08:22:03;11.25;;;3.35;;
62790;SDS011;48830;53.426;10.300;2023-05-29T08:24:29;11.23;;;3.20;;
62790;SDS011;48830;53.426;10.300;2023-05-29T08:26:55;9.65;;;3.15;;
62790;SDS011;48830;53.426;10.300;2023-05-29T08:29:20;13.27;;;3.00;;
62790;SDS011;48830;53.426;10.300;2023-05-29T08:31:46;10.48;;;3.25;;
62790;SDS011;48830;53.426;10.300;2023-05-29T08:34:12;14.50;;;4.20;;
62790;SDS011;48830;53.426;10.300;2023-05-29T08:36:39;8.85;;;2.75;;
62790;SDS011;48830;53.426;10.300;2023-05-29T08:39:07;10.13;;;3.10;;
62790;SDS011;48830;53.426;10.300;2023-05-29T08:44:12;10.77;;;3.20;;
62790;SDS011;48830;53.426;10.300;2023-05-29T08:46:39;11.15;;;2.92;;
62790;SDS011;48830;53.426;10.300;2023-05-29T08:49:05;15.10;;;3.28;;
62790;SDS011;48830;53.426;10.300;2023-05-29T08:51:34;12.85;;;3.20;;
62790;SDS011;48830;53.426;10.300;2023-05-29T08:54:03;12.82;;;3.08;;
62790;SDS011;48830;53.426;10.300;2023-05-29T08:56:29;13.50;;;3.45;;
62790;SDS011;48830;53.426;10.300;2023-05-29T08:58:54;16.35;;;3.72;;
62790;SDS011;48830;53.426;10.300;2023-05-29T09:01:22;10.25;;;3.38;;
62790;SDS011;48830;53.426;10.300;2023-05-29T09:03:48;11.45;;;3.55;;
62790;SDS011;48830;53.426;10.300;2023-05-29T09:06:14;14.13;;;3.42;;
62790;SDS011;48830;53.426;10.300;2023-05-29T09:08:39;17.10;;;3.70;;
62790;SDS011;48830;53.426;10.300;2023-05-29T09:11:05;11.35;;;3.80;;
62790;SDS011;48830;53.426;10.300;2023-05-29T09:13:30;13.00;;;3.22;;
62790;SDS011;48830;53.426;10.300;2023-05-29T09:15:59;9.27;;;3.08;;
62790;SDS011;48830;53.426;10.300;2023-05-29T09:18:32;13.18;;;3.38;;
62790;SDS011;48830;53.426;10.300;2023-05-29T09:20:58;11.13;;;3.30;;
62790;SDS011;48830;53.426;10.300;2023-05-29T09:23:25;10.02;;;3.30;;
62790;SDS011;48830;53.426;10.300;2023-05-29T09:25:52;12.50;;;3.50;;
62790;SDS011;48830;53.426;10.300;2023-05-29T09:28:19;11.52;;;2.90;;
62790;SDS011;48830;53.426;10.300;2023-05-29T09:30:46;14.70;;;3.20;;
62790;SDS011;48830;53.426;10.300;2023-05-29T09:33:13;11.13;;;2.90;;
62790;SDS011;48830;53.426;10.300;2023-05-29T09:35:40;11.05;;;2.97;;
62790;SDS011;48830;53.426;10.300;2023-05-29T09:38:08;10.85;;;2.90;;
62790;SDS011;48830;53.426;10.300;2023-05-29T09:40:38;10.13;;;3.30;;
62790;SDS011;48830;53.426;10.300;2023-05-29T09:43:06;8.65;;;2.83;;
62790;SDS011;48830;53.426;10.300;2023-05-29T09:45:41;11.90;;;3.30;;
62790;SDS011;48830;53.426;10.300;2023-05-29T09:48:08;12.25;;;3.35;;
62790;SDS011;48830;53.426;10.300;2023-05-29T09:50:37;9.30;;;2.80;;
62790;SDS011;48830;53.426;10.300;2023-05-29T09:53:13;10.48;;;3.15;;
62790;SDS011;48830;53.426;10.300;2023-05-29T09:55:42;10.77;;;2.67;;
62790;SDS011;48830;53.426;10.300;2023-05-29T09:58:08;9.65;;;3.10;;
62790;SDS011;48830;53.426;10.300;2023-05-29T10:00:37;10.85;;;3.25;;
62790;SDS011;48830;53.426;10.300;2023-05-29T10:03:04;10.80;;;3.05;;
62790;SDS011;48830;53.426;10.300;2023-05-29T10:05:29;12.45;;;2.95;;
62790;SDS011;48830;53.426;10.300;2023-05-29T10:07:55;11.52;;;3.17;;
62790;SDS011;48830;53.426;10.300;2023-05-29T10:10:21;8.73;;;2.90;;
62790;SDS011;48830;53.426;10.300;2023-05-29T10:12:50;13.55;;;4.03;;
62790;SDS011;48830;53.426;10.300;2023-05-29T10:15:16;14.68;;;3.88;;
62790;SDS011;48830;53.426;10.300;2023-05-29T10:17:53;9.82;;;3.25;;
62790;SDS011;48830;53.426;10.300;2023-05-29T10:20:24;9.40;;;2.95;;
62790;SDS011;48830;53.426;10.300;2023-05-29T10:22:51;10.18;;;3.05;;
62790;SDS011;48830;53.426;10.300;2023-05-29T10:25:19;9.85;;;3.25;;
62790;SDS011;48830;53.426;10.300;2023-05-29T10:27:46;10.75;;;3.38;;
62790;SDS011;48830;53.426;10.300;2023-05-29T10:36:13;8.30;;;2.72;;
62790;SDS011;48830;53.426;10.300;2023-05-29T10:38:46;9.27;;;2.92;;
62790;SDS011;48830;53.426;10.300;2023-05-29T10:43:59;10.10;;;2.70;;
62790;SDS011;48830;53.426;10.300;2023-05-29T10:49:19;8.48;;;2.72;;
62790;SDS011;48830;53.426;10.300;2023-05-29T10:51:46;8.68;;;3.22;;
62790;SDS011;48830;53.426;10.300;2023-05-29T10:54:13;9.05;;;2.80;;
62790;SDS011;48830;53.426;10.300;2023-05-29T10:56:39;11.15;;;2.72;;
62790;SDS011;48830;53.426;10.300;2023-05-29T10:59:07;7.85;;;2.40;;
62790;SDS011;48830;53.426;10.300;2023-05-29T11:01:33;10.63;;;2.90;;
62790;SDS011;48830;53.426;10.300;2023-05-29T11:06:43;9.20;;;2.92;;
62790;SDS011;48830;53.426;10.300;2023-05-29T11:09:27;10.45;;;2.83;;
62790;SDS011;48830;53.426;10.300;2023-05-29T11:12:14;9.88;;;2.65;;
62790;SDS011;48830;53.426;10.300;2023-05-29T11:15:10;6.25;;;2.50;;
62790;SDS011;48830;53.426;10.300;2023-05-29T11:20:03;9.38;;;2.80;;
62790;SDS011;48830;53.426;10.300;2023-05-29T11:23:18;9.00;;;2.72;;
62790;SDS011;48830;53.426;10.300;2023-05-29T11:25:24;8.63;;;2.85;;
62790;SDS011;48830;53.426;10.300;2023-05-29T11:27:50;8.15;;;2.83;;
62790;SDS011;48830;53.426;10.300;2023-05-29T11:30:17;7.90;;;2.67;;
62790;SDS011;48830;53.426;10.300;2023-05-29T11:32:46;7.55;;;2.55;;
62790;SDS011;48830;53.426;10.300;2023-05-29T11:35:13;10.02;;;3.17;;
62790;SDS011;48830;53.426;10.300;2023-05-29T11:37:39;9.32;;;2.47;;
62790;SDS011;48830;53.426;10.300;2023-05-29T11:40:08;7.72;;;2.78;;
62790;SDS011;48830;53.426;10.300;2023-05-29T11:42:34;8.27;;;2.80;;
62790;SDS011;48830;53.426;10.300;2023-05-29T11:45:11;6.90;;;2.53;;
62790;SDS011;48830;53.426;10.300;2023-05-29T11:47:59;7.78;;;2.78;;
62790;SDS011;48830;53.426;10.300;2023-05-29T11:50:27;6.15;;;2.30;;
62790;SDS011;48830;53.426;10.300;2023-05-29T11:52:55;7.90;;;2.67;;
62790;SDS011;48830;53.426;10.300;2023-05-29T11:55:21;8.27;;;2.58;;
62790;SDS011;48830;53.426;10.300;2023-05-29T11:57:51;12.27;;;2.90;;
62790;SDS011;48830;53.426;10.300;2023-05-29T12:00:21;5.65;;;2.47;;
62790;SDS011;48830;53.426;10.300;2023-05-29T12:02:47;7.75;;;2.63;;
62790;SDS011;48830;53.426;10.300;2023-05-29T12:05:15;8.23;;;2.50;;
62790;SDS011;48830;53.426;10.300;2023-05-29T12:07:46;8.25;;;2.67;;
62790;SDS011;48830;53.426;10.300;2023-05-29T12:10:14;10.85;;;3.28;;
62790;SDS011;48830;53.426;10.300;2023-05-29T12:12:42;8.27;;;2.40;;
62790;SDS011;48830;53.426;10.300;2023-05-29T12:15:11;6.43;;;2.58;;
62790;SDS011;48830;53.426;10.300;2023-05-29T12:17:38;8.95;;;2.55;;
62790;SDS011;48830;53.426;10.300;2023-05-29T12:20:05;9.73;;;2.78;;
62790;SDS011;48830;53.426;10.300;2023-05-29T12:22:34;9.45;;;2.53;;
62790;SDS011;48830;53.426;10.300;2023-05-29T12:25:04;8.10;;;2.90;;
62790;SDS011;48830;53.426;10.300;2023-05-29T12:27:43;9.73;;;3.03;;
62790;SDS011;48830;53.426;10.300;2023-05-29T12:32:44;10.00;;;2.75;;
62790;SDS011;48830;53.426;10.300;2023-05-29T12:40:22;7.55;;;2.50;;
62790;SDS011;48830;53.426;10.300;2023-05-29T12:42:49;7.88;;;2.70;;
62790;SDS011;48830;53.426;10.300;2023-05-29T12:45:19;6.88;;;2.47;;
62790;SDS011;48830;53.426;10.300;2023-05-29T12:47:45;8.60;;;2.65;;
62790;SDS011;48830;53.426;10.300;2023-05-29T12:55:26;9.60;;;2.53;;
62790;SDS011;48830;53.426;10.300;2023-05-29T12:57:52;7.43;;;2.72;;
62790;SDS011;48830;53.426;10.300;2023-05-29T13:00:19;9.75;;;3.17;;
62790;SDS011;48830;53.426;10.300;2023-05-29T13:02:45;9.70;;;3.03;;
62790;SDS011;48830;53.426;10.300;2023-05-29T13:05:11;9.27;;;2.83;;
62790;SDS011;48830;53.426;10.300;2023-05-29T13:07:37;10.13;;;2.60;;
62790;SDS011;48830;53.426;10.300;2023-05-29T13:10:03;7.18;;;2.95;;
62790;SDS011;48830;53.426;10.300;2023-05-29T13:12:28;10.52;;;2.88;;
62790;SDS011;48830;53.426;10.300;2023-05-29T13:14:54;8.25;;;2.65;;
62790;SDS011;48830;53.426;10.300;2023-05-29T13:17:22;9.95;;;2.85;;
62790;SDS011;48830;53.426;10.300;2023-05-29T13:19:47;7.97;;;2.50;;
62790;SDS011;48830;53.426;10.300;2023-05-29T13:22:13;10.15;;;2.90;;
62790;SDS011;48830;53.426;10.300;2023-05-29T13:24:38;7.18;;;2.60;;
62790;SDS011;48830;53.426;10.300;2023-05-29T13:27:04;10.07;;;2.90;;
62790;SDS011;48830;53.426;10.300;2023-05-29T13:29:30;8.23;;;2.90;;
62790;SDS011;48830;53.426;10.300;2023-05-29T13:31:56;9.00;;;3.08;;
62790;SDS011;48830;53.426;10.300;2023-05-29T13:34:21;8.68;;;2.50;;
62790;SDS011;48830;53.426;10.300;2023-05-29T13:36:50;8.00;;;2.47;;
62790;SDS011;48830;53.426;10.300;2023-05-29T13:39:16;8.00;;;2.88;;
62790;SDS011;48830;53.426;10.300;2023-05-29T13:41:41;7.32;;;2.50;;
62790;SDS011;48830;53.426;10.300;2023-05-29T13:44:07;8.38;;;2.70;;
62790;SDS011;48830;53.426;10.300;2023-05-29T13:46:32;9.45;;;2.72;;
62790;SDS011;48830;53.426;10.300;2023-05-29T13:48:57;7.90;;;2.80;;
62790;SDS011;48830;53.426;10.300;2023-05-29T13:51:23;8.43;;;2.75;;
62790;SDS011;48830;53.426;10.300;2023-05-29T13:53:48;9.10;;;2.70;;
62790;SDS011;48830;53.426;10.300;2023-05-29T13:56:14;7.07;;;2.63;;
62790;SDS011;48830;53.426;10.300;2023-05-29T13:58:39;9.40;;;2.83;;
62790;SDS011;48830;53.426;10.300;2023-05-29T14:01:05;7.82;;;2.50;;
62790;SDS011;48830;53.426;10.300;2023-05-29T14:03:30;6.28;;;2.42;;
62790;SDS011;48830;53.426;10.300;2023-05-29T14:05:56;8.57;;;2.70;;
62790;SDS011;48830;53.426;10.300;2023-05-29T14:08:22;6.00;;;2.40;;
62790;SDS011;48830;53.426;10.300;2023-05-29T14:10:47;7.18;;;2.30;;
62790;SDS011;48830;53.426;10.300;2023-05-29T14:13:13;8.00;;;2.50;;
62790;SDS011;48830;53.426;10.300;2023-05-29T14:15:38;8.32;;;2.50;;
62790;SDS011;48830;53.426;10.300;2023-05-29T14:18:04;5.65;;;2.70;;
62790;SDS011;48830;53.426;10.300;2023-05-29T14:20:30;7.22;;;2.50;;
62790;SDS011;48830;53.426;10.300;2023-05-29T14:22:55;6.88;;;2.70;;
62790;SDS011;48830;53.426;10.300;2023-05-29T14:25:21;8.07;;;2.97;;
62790;SDS011;48830;53.426;10.300;2023-05-29T14:27:46;9.55;;;3.20;;
62790;SDS011;48830;53.426;10.300;2023-05-29T14:30:12;7.75;;;2.53;;
62790;SDS011;48830;53.426;10.300;2023-05-29T14:32:38;6.30;;;2.50;;
62790;SDS011;48830;53.426;10.300;2023-05-29T14:35:03;10.43;;;3.05;;
62790;SDS011;48830;53.426;10.300;2023-05-29T14:37:29;11.75;;;2.85;;
62790;SDS011;48830;53.426;10.300;2023-05-29T14:39:54;9.50;;;3.08;;
62790;SDS011;48830;53.426;10.300;2023-05-29T14:42:20;8.30;;;2.70;;
62790;SDS011;48830;53.426;10.300;2023-05-29T14:44:45;8.95;;;2.72;;
62790;SDS011;48830;53.426;10.300;2023-05-29T14:47:11;8.85;;;2.75;;
62790;SDS011;48830;53.426;10.300;2023-05-29T14:49:37;8.38;;;2.83;;
62790;SDS011;48830;53.426;10.300;2023-05-29T14:52:03;8.23;;;2.67;;
62790;SDS011;48830;53.426;10.300;2023-05-29T14:54:29;7.93;;;2.90;;
62790;SDS011;48830;53.426;10.300;2023-05-29T14:56:55;7.22;;;2.60;;
62790;SDS011;48830;53.426;10.300;2023-05-29T14:59:22;9.85;;;2.75;;
62790;SDS011;48830;53.426;10.300;2023-05-29T15:01:48;8.45;;;2.70;;
62790;SDS011;48830;53.426;10.300;2023-05-29T15:04:15;8.23;;;2.80;;
62790;SDS011;48830;53.426;10.300;2023-05-29T15:06:41;9.80;;;3.08;;